createdAt,value
2019-02-17T00:00:55.153Z,23.42
2019-02-17T00:03:23.571Z,15.25
2019-02-17T00:05:52.126Z,16.17
2019-02-17T00:08:20.660Z,15.40
2019-02-17T00:10:49.074Z,16.45
2019-02-17T00:13:17.595Z,16.02
2019-02-17T00:15:46.079Z,15.80
2019-02-17T00:18:14.495Z,15.78
2019-02-17T00:20:42.964Z,15.68
2019-02-17T00:23:11.415Z,14.93
2019-02-17T00:25:39.812Z,14.75
2019-02-17T00:28:08.192Z,15.83
2019-02-17T00:30:36.691Z,15.08
2019-02-17T00:33:05.208Z,14.85
2019-02-17T00:35:33.585Z,15.65
2019-02-17T00:38:02.004Z,13.38
2019-02-17T00:40:30.472Z,13.72
2019-02-17T00:42:58.931Z,16.45
2019-02-17T00:45:27.347Z,14.85
2019-02-17T00:47:55.773Z,15.72
2019-02-17T00:50:24.207Z,14.78
2019-02-17T00:52:52.769Z,14.85
2019-02-17T00:55:21.185Z,15.63
2019-02-17T00:57:49.664Z,16.77
2019-02-17T01:00:18.347Z,14.75
2019-02-17T01:02:46.846Z,15.93
2019-02-17T01:05:15.302Z,14.50
2019-02-17T01:07:43.721Z,15.35
2019-02-17T01:10:12.139Z,15.65
2019-02-17T01:12:40.617Z,15.95
2019-02-17T01:15:11.508Z,15.38
2019-02-17T01:17:39.987Z,15.15
2019-02-17T01:20:09.743Z,16.05
2019-02-17T01:22:38.161Z,16.45
2019-02-17T01:25:08.711Z,16.25
2019-02-17T01:27:37.200Z,16.40
2019-02-17T01:30:26.651Z,15.70
2019-02-17T01:32:55.076Z,16.57
2019-02-17T01:35:23.564Z,16.05
2019-02-17T01:37:51.978Z,16.12
2019-02-17T01:40:20.394Z,17.00
2019-02-17T01:42:48.879Z,16.05
2019-02-17T01:45:17.295Z,16.12
2019-02-17T01:47:45.776Z,17.25
2019-02-17T01:50:14.199Z,18.37
2019-02-17T01:52:42.610Z,18.12
2019-02-17T01:55:11.031Z,18.45
2019-02-17T01:57:39.517Z,18.67
2019-02-17T02:00:11.099Z,18.27
2019-02-17T02:02:39.520Z,19.10
2019-02-17T02:05:08.006Z,20.20
2019-02-17T02:07:36.421Z,20.40
2019-02-17T02:10:07.440Z,19.57
2019-02-17T02:15:03.654Z,20.20
2019-02-17T02:17:32.069Z,20.35
2019-02-17T02:20:00.447Z,20.80
2019-02-17T02:22:28.822Z,21.80
2019-02-17T02:24:57.311Z,21.85
2019-02-17T02:27:25.718Z,22.37
2019-02-17T02:29:54.215Z,18.27
2019-02-17T02:32:22.629Z,22.13
2019-02-17T02:34:51.047Z,23.80
2019-02-17T02:37:19.463Z,22.10
2019-02-17T02:39:47.949Z,23.98
2019-02-17T02:42:17.231Z,22.32
2019-02-17T02:44:45.650Z,24.02
2019-02-17T02:47:14.071Z,23.27
2019-02-17T02:49:42.613Z,24.70
2019-02-17T02:52:11.025Z,24.70
2019-02-17T02:54:39.443Z,23.40
2019-02-17T02:57:07.854Z,26.00
2019-02-17T02:59:36.292Z,23.95
2019-02-17T03:02:04.782Z,23.27
2019-02-17T03:04:33.304Z,24.75
2019-02-17T03:07:02.085Z,23.95
2019-02-17T03:09:30.579Z,23.65
2019-02-17T03:11:58.991Z,23.55
2019-02-17T03:14:27.434Z,22.80
2019-02-17T03:16:55.826Z,24.05
2019-02-17T03:19:24.261Z,23.47
2019-02-17T03:21:52.679Z,24.05
2019-02-17T03:24:40.525Z,22.85
2019-02-17T03:27:08.943Z,24.37
2019-02-17T03:29:37.356Z,24.20
2019-02-17T03:32:05.847Z,26.80
2019-02-17T03:34:34.254Z,29.60
2019-02-17T03:37:02.738Z,24.32
2019-02-17T03:39:31.152Z,30.57
2019-02-17T03:41:59.688Z,35.13
2019-02-17T03:44:28.104Z,28.73
2019-02-17T03:46:56.589Z,32.28
2019-02-17T03:49:25.016Z,31.30
2019-02-17T03:51:53.494Z,34.35
2019-02-17T03:54:21.903Z,34.20
2019-02-17T03:56:50.394Z,25.02
2019-02-17T03:59:38.248Z,26.73
2019-02-17T04:02:06.724Z,27.82
2019-02-17T04:04:35.174Z,28.85
2019-02-17T04:07:03.659Z,29.48
2019-02-17T04:09:32.084Z,26.02
2019-02-17T04:12:00.495Z,32.53
2019-02-17T04:14:28.911Z,40.70
2019-02-17T04:16:57.322Z,31.33
2019-02-17T04:19:25.702Z,26.52
2019-02-17T04:21:54.080Z,23.90
2019-02-17T04:24:22.496Z,25.82
2019-02-17T04:26:50.870Z,29.60
2019-02-17T04:29:19.275Z,26.77
2019-02-17T04:31:47.671Z,28.30
2019-02-17T04:34:16.086Z,28.75
2019-02-17T04:36:44.503Z,26.62
2019-02-17T04:39:12.950Z,26.80
2019-02-17T04:41:41.366Z,29.98
2019-02-17T04:44:09.864Z,27.35
2019-02-17T04:46:50.889Z,32.45
2019-02-17T04:49:19.306Z,28.38
2019-02-17T04:51:47.727Z,27.85
2019-02-17T04:54:16.220Z,27.27
2019-02-17T04:56:44.628Z,21.02
2019-02-17T04:59:13.084Z,22.58
2019-02-17T05:01:41.508Z,26.45
2019-02-17T05:04:09.987Z,28.07
2019-02-17T05:06:40.754Z,35.52
2019-02-17T05:09:08.534Z,26.73
2019-02-17T05:11:36.961Z,24.10
2019-02-17T05:14:05.375Z,25.45
2019-02-17T05:16:33.786Z,25.17
2019-02-17T05:19:02.232Z,24.80
2019-02-17T05:21:30.615Z,24.67
2019-02-17T05:23:59.059Z,21.33
2019-02-17T05:26:27.523Z,19.30
2019-02-17T05:28:56.648Z,20.05
2019-02-17T05:31:25.119Z,18.55
2019-02-17T05:33:53.533Z,21.20
2019-02-17T05:36:21.945Z,18.57
2019-02-17T05:38:50.359Z,19.77
2019-02-17T05:41:18.786Z,18.70
2019-02-17T05:43:47.199Z,18.80
2019-02-17T05:46:15.619Z,17.07
2019-02-17T05:48:44.123Z,18.20
2019-02-17T05:51:12.536Z,17.57
2019-02-17T05:53:41.023Z,19.12
2019-02-17T05:56:09.442Z,17.82
2019-02-17T05:58:37.910Z,18.48
2019-02-17T06:01:07.427Z,19.48
2019-02-17T06:03:36.048Z,19.70
2019-02-17T06:06:04.530Z,17.77
2019-02-17T06:08:32.951Z,19.35
2019-02-17T06:11:01.361Z,18.67
2019-02-17T06:13:29.778Z,20.45
2019-02-17T06:15:58.215Z,20.52
2019-02-17T06:18:26.627Z,17.82
2019-02-17T06:20:55.043Z,18.62
2019-02-17T06:23:23.463Z,19.25
2019-02-17T06:25:51.881Z,19.80
2019-02-17T06:28:20.291Z,18.27
2019-02-17T06:30:48.782Z,17.25
2019-02-17T06:33:17.187Z,17.32
2019-02-17T06:36:05.041Z,15.75
2019-02-17T06:38:33.443Z,14.98
2019-02-17T06:41:01.911Z,16.17
2019-02-17T06:43:30.403Z,18.40
2019-02-17T06:45:59.286Z,16.75
2019-02-17T06:48:27.700Z,16.82
2019-02-17T06:50:56.107Z,19.05
2019-02-17T06:53:24.563Z,17.25
2019-02-17T06:55:57.350Z,18.67
2019-02-17T06:58:25.768Z,15.95
2019-02-17T07:00:54.244Z,19.80
2019-02-17T07:03:22.690Z,19.52
2019-02-17T07:05:52.723Z,19.00
2019-02-17T07:08:21.144Z,19.57
2019-02-17T07:10:49.622Z,20.27
2019-02-17T07:13:18.043Z,18.40
2019-02-17T07:15:46.527Z,17.70
2019-02-17T07:18:14.978Z,16.15
2019-02-17T07:20:43.359Z,17.15
2019-02-17T07:23:11.846Z,19.32
2019-02-17T07:25:40.260Z,24.40
2019-02-17T07:28:08.742Z,18.52
2019-02-17T07:30:37.188Z,17.50
2019-02-17T07:33:05.644Z,25.05
2019-02-17T07:35:34.017Z,20.57
2019-02-17T07:38:02.439Z,16.07
2019-02-17T07:40:30.861Z,31.62
2019-02-17T07:42:59.275Z,36.33
2019-02-17T07:45:27.695Z,32.78
2019-02-17T07:47:56.116Z,22.27
2019-02-17T07:50:24.545Z,19.80
2019-02-17T07:52:53.902Z,16.27
2019-02-17T07:55:22.324Z,15.05
2019-02-17T07:57:50.762Z,45.67
2019-02-17T08:00:19.179Z,19.65
2019-02-17T08:02:49.521Z,14.13
2019-02-17T08:05:17.659Z,12.63
2019-02-17T08:07:46.153Z,24.63
2019-02-17T08:10:17.683Z,30.30
2019-02-17T08:12:46.227Z,21.45
2019-02-17T08:15:14.595Z,16.15
2019-02-17T08:17:43.027Z,17.17
2019-02-17T08:20:13.004Z,12.73
2019-02-17T08:22:44.539Z,11.68
2019-02-17T08:25:21.428Z,12.20
2019-02-17T08:27:43.162Z,7.90
2019-02-17T08:30:14.679Z,9.35
2019-02-17T08:32:44.161Z,8.15
2019-02-17T08:35:14.096Z,7.20
2019-02-17T08:37:42.591Z,15.08
2019-02-17T08:40:11.117Z,13.43
2019-02-17T08:42:39.532Z,9.48
2019-02-17T08:45:09.438Z,8.80
2019-02-17T08:47:37.799Z,7.58
2019-02-17T08:50:11.275Z,9.05
2019-02-17T08:52:39.696Z,6.87
2019-02-17T08:55:09.852Z,6.53
2019-02-17T08:57:38.295Z,7.70
2019-02-17T09:00:26.192Z,7.10
2019-02-17T09:02:54.615Z,7.35
2019-02-17T09:05:23.031Z,8.55
2019-02-17T09:07:51.452Z,6.17
2019-02-17T09:10:19.932Z,5.47
2019-02-17T09:12:48.350Z,15.63
2019-02-17T09:15:16.775Z,5.65
2019-02-17T09:17:45.185Z,6.67
2019-02-17T09:20:13.604Z,7.25
2019-02-17T09:22:42.023Z,5.42
2019-02-17T09:25:11.470Z,10.40
2019-02-17T09:27:39.899Z,5.92
2019-02-17T09:30:33.502Z,7.90
2019-02-17T09:33:02.005Z,5.60
2019-02-17T09:35:30.503Z,7.83
2019-02-17T09:37:58.933Z,8.65
2019-02-17T09:40:27.336Z,7.17
2019-02-17T09:42:55.822Z,7.97
2019-02-17T09:45:24.238Z,7.30
2019-02-17T09:47:52.724Z,7.62
2019-02-17T09:50:21.415Z,4.92
2019-02-17T09:53:09.264Z,5.15
2019-02-17T09:55:38.851Z,5.83
2019-02-17T09:58:07.328Z,4.95
2019-02-17T10:00:35.671Z,6.37
2019-02-17T10:03:04.087Z,5.50
2019-02-17T10:05:32.508Z,5.95
2019-02-17T10:08:00.915Z,5.50
2019-02-17T10:10:29.335Z,4.42
2019-02-17T10:12:57.742Z,3.90
2019-02-17T10:15:26.156Z,7.58
2019-02-17T10:17:54.647Z,4.20
2019-02-17T10:20:24.571Z,3.35
2019-02-17T10:22:53.239Z,8.60
2019-02-17T10:25:21.670Z,13.48
2019-02-17T10:27:50.092Z,3.80
2019-02-17T10:30:18.674Z,6.45
2019-02-17T10:32:47.156Z,8.23
2019-02-17T10:35:15.567Z,2.65
2019-02-17T10:37:43.974Z,3.37
2019-02-17T10:40:36.619Z,5.67
2019-02-17T10:43:05.098Z,3.50
2019-02-17T10:45:33.520Z,4.28
2019-02-17T10:48:01.923Z,5.78
2019-02-17T10:50:30.343Z,3.72
2019-02-17T10:52:58.829Z,15.08
2019-02-17T10:55:27.199Z,4.87
2019-02-17T10:58:07.887Z,3.22
2019-02-17T11:00:36.363Z,2.27
2019-02-17T11:03:07.010Z,2.95
2019-02-17T11:05:35.517Z,3.20
2019-02-17T11:08:04.006Z,3.15
2019-02-17T11:10:32.494Z,12.47
2019-02-17T11:13:00.983Z,8.50
2019-02-17T11:15:29.468Z,3.90
2019-02-17T11:17:57.884Z,13.50
2019-02-17T11:20:26.362Z,3.20
2019-02-17T11:22:54.775Z,3.02
2019-02-17T11:25:23.267Z,2.10
2019-02-17T11:27:51.750Z,3.50
2019-02-17T11:30:30.439Z,3.72
2019-02-17T11:32:59.286Z,4.15
2019-02-17T11:35:29.747Z,2.80
2019-02-17T11:37:57.760Z,2.90
2019-02-17T11:40:26.166Z,4.05
2019-02-17T11:42:54.587Z,8.93
2019-02-17T11:45:23.003Z,4.17
2019-02-17T11:47:51.553Z,5.97
2019-02-17T11:50:19.970Z,3.65
2019-02-17T11:52:48.450Z,3.22
2019-02-17T11:55:16.860Z,3.02
2019-02-17T11:57:45.274Z,3.75
2019-02-17T12:00:21.662Z,2.72
2019-02-17T12:02:50.073Z,2.40
2019-02-17T12:05:18.496Z,3.30
2019-02-17T12:07:47.099Z,2.58
2019-02-17T12:10:15.575Z,3.52
2019-02-17T12:12:44.062Z,2.33
2019-02-17T12:15:13.709Z,3.95
2019-02-17T12:17:42.192Z,3.92
2019-02-17T12:22:55.296Z,3.50
2019-02-17T12:25:25.330Z,2.62
2019-02-17T12:27:55.389Z,4.22
2019-02-17T12:30:23.874Z,3.40
2019-02-17T12:32:52.288Z,6.75
2019-02-17T12:35:20.704Z,7.67
2019-02-17T12:37:49.115Z,5.15
2019-02-17T12:40:17.531Z,2.30
2019-02-17T12:42:45.953Z,5.85
2019-02-17T12:45:17.976Z,2.45
2019-02-17T12:47:44.504Z,9.80
2019-02-17T12:50:13.099Z,3.08
2019-02-17T12:52:47.058Z,5.97
2019-02-17T12:55:11.611Z,4.13
2019-02-17T12:57:40.092Z,3.37
2019-02-17T13:00:15.282Z,6.17
2019-02-17T13:02:43.834Z,4.00
2019-02-17T13:05:12.908Z,3.47
2019-02-17T13:07:42.865Z,4.95
2019-02-17T13:10:11.965Z,4.62
2019-02-17T13:12:40.465Z,5.58
2019-02-17T13:15:34.008Z,8.15
2019-02-17T13:18:02.591Z,9.60
2019-02-17T13:20:30.986Z,4.78
2019-02-17T13:22:59.477Z,5.12
2019-02-17T13:25:27.963Z,3.92
2019-02-17T13:27:56.372Z,3.90
2019-02-17T13:30:26.490Z,10.82
2019-02-17T13:32:54.944Z,4.80
2019-02-17T13:35:23.462Z,5.08
2019-02-17T13:37:51.949Z,4.55
2019-02-17T13:40:20.323Z,4.05
2019-02-17T13:42:48.770Z,43.90
2019-02-17T13:45:17.563Z,11.18
2019-02-17T13:47:45.994Z,7.10
2019-02-17T13:50:15.670Z,4.95
2019-02-17T13:52:44.192Z,6.60
2019-02-17T13:55:12.606Z,4.40
2019-02-17T13:57:41.024Z,5.37
2019-02-17T14:00:12.706Z,5.33
2019-02-17T14:02:41.201Z,3.02
2019-02-17T14:05:09.613Z,5.90
2019-02-17T14:07:38.019Z,5.15
2019-02-17T14:10:11.545Z,5.58
2019-02-17T14:12:40.049Z,7.05
2019-02-17T14:15:11.448Z,5.05
2019-02-17T14:17:39.853Z,3.40
2019-02-17T14:20:10.179Z,7.10
2019-02-17T14:22:38.637Z,8.60
2019-02-17T14:25:10.890Z,5.90
2019-02-17T14:27:38.915Z,9.90
2019-02-17T14:30:13.786Z,7.72
2019-02-17T14:32:42.195Z,11.15
2019-02-17T14:35:10.671Z,5.55
2019-02-17T14:37:39.091Z,6.97
2019-02-17T14:40:10.013Z,5.37
2019-02-17T14:42:38.434Z,6.60
2019-02-17T14:45:10.340Z,7.30
2019-02-17T14:47:38.759Z,5.05
2019-02-17T14:50:08.345Z,4.78
2019-02-17T14:52:36.788Z,6.78
2019-02-17T14:55:07.384Z,8.40
2019-02-17T14:57:35.793Z,3.83
2019-02-17T15:00:07.301Z,5.85
2019-02-17T15:02:35.680Z,8.38
2019-02-17T15:05:04.807Z,14.43
2019-02-17T15:07:33.216Z,9.78
2019-02-17T15:10:01.736Z,19.10
2019-02-17T15:12:30.151Z,20.68
2019-02-17T15:14:58.555Z,30.10
2019-02-17T15:17:26.972Z,22.75
2019-02-17T15:19:55.341Z,17.90
2019-02-17T15:22:23.726Z,9.88
2019-02-17T15:24:52.143Z,9.23
2019-02-17T15:27:20.558Z,12.88
2019-02-17T15:29:48.977Z,18.52
2019-02-17T15:32:17.461Z,19.12
2019-02-17T15:34:45.872Z,28.30
2019-02-17T15:37:14.380Z,19.80
2019-02-17T15:39:42.798Z,14.87
2019-02-17T15:42:11.197Z,15.88
2019-02-17T15:44:41.225Z,40.23
2019-02-17T15:47:09.656Z,36.80
2019-02-17T15:49:39.950Z,34.20
2019-02-17T15:52:08.200Z,19.73
2019-02-17T15:54:36.625Z,11.12
2019-02-17T15:57:05.040Z,30.30
2019-02-17T15:59:33.524Z,32.28
2019-02-17T16:02:01.951Z,48.15
2019-02-17T16:04:30.374Z,38.55
2019-02-17T16:06:58.874Z,14.00
2019-02-17T16:09:27.304Z,66.42
2019-02-17T16:11:55.835Z,13.90
2019-02-17T16:14:24.286Z,14.23
2019-02-17T16:16:52.834Z,31.40
2019-02-17T16:19:21.255Z,12.07
2019-02-17T16:21:49.723Z,21.42
2019-02-17T16:24:18.145Z,22.50
2019-02-17T16:26:46.631Z,12.33
2019-02-17T16:29:15.062Z,15.98
2019-02-17T16:31:43.545Z,84.25
2019-02-17T16:34:11.965Z,24.35
2019-02-17T16:36:40.446Z,21.07
2019-02-17T16:39:10.506Z,15.00
2019-02-17T16:41:38.923Z,16.93
2019-02-17T16:44:07.338Z,23.15
2019-02-17T16:47:01.809Z,16.90
2019-02-17T16:49:30.286Z,28.40
2019-02-17T16:51:58.706Z,13.40
2019-02-17T16:54:27.164Z,18.73
2019-02-17T16:56:55.579Z,21.73
2019-02-17T16:59:24.039Z,19.35
2019-02-17T17:01:52.448Z,21.73
2019-02-17T17:04:20.869Z,23.65
2019-02-17T17:06:49.278Z,19.92
2019-02-17T17:09:17.766Z,20.08
2019-02-17T17:11:46.183Z,19.80
2019-02-17T17:14:14.679Z,16.20
2019-02-17T17:16:43.099Z,28.95
2019-02-17T17:19:11.587Z,17.45
2019-02-17T17:21:40.006Z,18.25
2019-02-17T17:24:08.486Z,12.82
2019-02-17T17:26:36.910Z,19.87
2019-02-17T17:29:05.394Z,26.27
2019-02-17T17:31:33.824Z,12.47
2019-02-17T17:34:02.295Z,15.38
2019-02-17T17:36:30.706Z,15.13
2019-02-17T17:38:59.140Z,14.83
2019-02-17T17:41:27.551Z,20.68
2019-02-17T17:43:55.993Z,15.03
2019-02-17T17:46:24.409Z,14.65
2019-02-17T17:48:52.912Z,10.93
2019-02-17T17:51:21.321Z,7.22
2019-02-17T17:53:49.734Z,8.03
2019-02-17T17:56:18.157Z,10.65
2019-02-17T17:58:46.594Z,9.50
2019-02-17T18:01:14.970Z,9.80
2019-02-17T18:03:43.456Z,11.80
2019-02-17T18:06:11.877Z,10.05
2019-02-17T18:08:40.441Z,10.65
2019-02-17T18:11:08.827Z,10.28
2019-02-17T18:13:37.271Z,5.55
2019-02-17T18:16:05.679Z,8.23
2019-02-17T18:18:34.180Z,8.65
2019-02-17T18:21:02.583Z,6.35
2019-02-17T18:23:31.081Z,10.40
2019-02-17T18:26:25.518Z,29.15
2019-02-17T18:28:54.004Z,8.15
2019-02-17T18:31:22.377Z,7.80
2019-02-17T18:33:50.764Z,5.55
2019-02-17T18:36:19.203Z,6.40
2019-02-17T18:38:47.656Z,10.72
2019-02-17T18:41:16.096Z,10.00
2019-02-17T18:43:44.588Z,10.88
2019-02-17T18:46:32.432Z,9.25
2019-02-17T18:49:00.971Z,12.28
2019-02-17T18:51:29.363Z,15.93
2019-02-17T18:53:59.222Z,23.10
2019-02-17T18:56:27.641Z,16.02
2019-02-17T18:58:56.230Z,16.97
2019-02-17T19:01:24.646Z,16.32
2019-02-17T19:03:54.279Z,11.55
2019-02-17T19:06:22.655Z,32.70
2019-02-17T19:08:51.148Z,47.15
2019-02-17T19:11:19.566Z,33.45
2019-02-17T19:13:48.055Z,15.53
2019-02-17T19:16:16.440Z,38.70
2019-02-17T19:18:44.893Z,14.75
2019-02-17T19:21:13.588Z,10.82
2019-02-17T19:23:41.995Z,7.47
2019-02-17T19:26:10.554Z,7.75
2019-02-17T19:28:38.973Z,6.92
2019-02-17T19:31:08.715Z,7.58
2019-02-17T19:33:37.129Z,13.15
2019-02-17T19:36:05.772Z,6.87
2019-02-17T19:38:34.142Z,8.03
2019-02-17T19:41:02.624Z,5.78
2019-02-17T19:43:32.222Z,7.05
2019-02-17T19:46:00.710Z,6.72
2019-02-17T19:48:29.129Z,7.90
2019-02-17T19:50:57.629Z,6.97
2019-02-17T19:53:26.214Z,8.08
2019-02-17T19:55:54.698Z,6.95
2019-02-17T19:58:23.115Z,10.00
2019-02-17T20:00:51.529Z,10.28
2019-02-17T20:03:27.295Z,8.65
2019-02-17T20:05:57.360Z,9.70
2019-02-17T20:08:25.771Z,9.37
2019-02-17T20:10:54.222Z,11.12
2019-02-17T20:13:22.716Z,10.65
2019-02-17T20:15:51.223Z,10.40
2019-02-17T20:18:19.631Z,10.00
2019-02-17T20:20:48.090Z,9.05
2019-02-17T20:23:16.530Z,8.75
2019-02-17T20:25:44.996Z,9.58
2019-02-17T20:28:13.366Z,7.65
2019-02-17T20:30:41.811Z,9.03
2019-02-17T20:33:10.185Z,9.63
2019-02-17T20:35:38.655Z,11.95
2019-02-17T20:38:07.080Z,13.70
2019-02-17T20:40:35.571Z,9.70
2019-02-17T20:43:04.050Z,7.58
2019-02-17T20:45:32.468Z,8.93
2019-02-17T20:48:00.883Z,8.25
2019-02-17T20:50:29.266Z,9.10
2019-02-17T20:52:57.712Z,7.60
2019-02-17T20:55:26.132Z,10.38
2019-02-17T20:57:54.872Z,7.47
2019-02-17T21:00:24.916Z,6.37
2019-02-17T21:02:53.400Z,9.60
2019-02-17T21:05:21.808Z,6.58
2019-02-17T21:07:50.186Z,9.60
2019-02-17T21:10:18.563Z,8.33
2019-02-17T21:12:47.053Z,8.20
2019-02-17T21:15:36.529Z,8.73
2019-02-17T21:18:04.961Z,9.15
2019-02-17T21:20:52.791Z,8.43
2019-02-17T21:23:21.347Z,7.60
2019-02-17T21:25:49.854Z,7.45
2019-02-17T21:28:18.396Z,7.37
2019-02-17T21:30:46.779Z,7.05
2019-02-17T21:33:15.259Z,7.08
2019-02-17T21:35:43.678Z,6.92
2019-02-17T21:38:12.099Z,7.03
2019-02-17T21:40:40.517Z,6.62
2019-02-17T21:43:08.923Z,6.92
2019-02-17T21:45:37.342Z,7.62
2019-02-17T21:48:05.855Z,7.25
2019-02-17T21:50:34.227Z,9.65
2019-02-17T21:53:02.683Z,10.35
2019-02-17T21:55:31.170Z,6.75
2019-02-17T21:57:59.650Z,9.35
2019-02-17T22:00:28.129Z,8.75
2019-02-17T22:02:56.485Z,5.97
2019-02-17T22:05:24.956Z,6.30
2019-02-17T22:07:53.389Z,6.67
2019-02-17T22:10:21.795Z,6.90
2019-02-17T22:12:51.355Z,9.60
2019-02-17T22:15:21.235Z,10.18
2019-02-17T22:17:49.616Z,10.68
2019-02-17T22:20:18.113Z,10.75
2019-02-17T22:22:46.523Z,9.13
2019-02-17T22:25:16.856Z,8.70
2019-02-17T22:27:45.578Z,11.83
2019-02-17T22:30:15.182Z,10.68
2019-02-17T22:32:43.606Z,11.75
2019-02-17T22:35:12.088Z,11.35
2019-02-17T22:37:40.521Z,12.30
2019-02-17T22:40:11.337Z,10.43
2019-02-17T22:42:39.794Z,10.70
2019-02-17T22:45:10.404Z,10.65
2019-02-17T22:47:38.859Z,10.28
2019-02-17T22:50:15.238Z,11.15
2019-02-17T22:52:44.969Z,13.50
2019-02-17T22:55:14.199Z,13.03
2019-02-17T22:57:42.738Z,14.58
2019-02-17T23:00:47.753Z,15.58
2019-02-17T23:03:16.274Z,18.32
2019-02-17T23:05:44.781Z,20.05
2019-02-17T23:08:13.171Z,19.55
2019-02-17T23:10:41.671Z,28.02
2019-02-17T23:13:10.152Z,22.45
2019-02-17T23:15:38.583Z,17.35
2019-02-17T23:18:07.072Z,18.15
2019-02-17T23:20:35.550Z,22.00
2019-02-17T23:23:04.044Z,21.87
2019-02-17T23:25:32.420Z,22.80
2019-02-17T23:28:00.802Z,23.18
2019-02-17T23:30:29.170Z,24.60
2019-02-17T23:32:57.631Z,26.55
2019-02-17T23:35:26.114Z,26.65
2019-02-17T23:37:56.327Z,26.17
2019-02-17T23:40:24.739Z,27.70
2019-02-17T23:43:12.658Z,26.65
2019-02-17T23:45:41.088Z,24.70
2019-02-17T23:48:09.576Z,23.42
2019-02-17T23:50:37.999Z,22.77
2019-02-17T23:53:06.498Z,20.82
2019-02-17T23:55:34.929Z,20.82
2019-02-17T23:58:03.423Z,16.77
